sensor_id;sensor_type;location;lat;lon;timestamp;temperature;humidity
11615;DHT22;5863;52.832;4.758;2023-05-07T00:00:21;14.90;99.90
11615;DHT22;5863;52.832;4.758;2023-05-07T00:02:49;14.90;99.90
11615;DHT22;5863;52.832;4.758;2023-05-07T00:05:16;14.80;99.90
11615;DHT22;5863;52.832;4.758;2023-05-07T00:07:43;14.80;99.90
11615;DHT22;5863;52.832;4.758;2023-05-07T00:10:10;14.90;99.90
11615;DHT22;5863;52.832;4.758;2023-05-07T00:12:37;14.80;99.90
11615;DHT22;5863;52.832;4.758;2023-05-07T00:15:05;14.80;99.90
11615;DHT22;5863;52.832;4.758;2023-05-07T00:17:33;14.80;99.90
11615;DHT22;5863;52.832;4.758;2023-05-07T00:20:02;14.70;99.90
11615;DHT22;5863;52.832;4.758;2023-05-07T00:22:30;14.70;99.90
11615;DHT22;5863;52.832;4.758;2023-05-07T00:24:57;14.70;99.90
11615;DHT22;5863;52.832;4.758;2023-05-07T00:27:24;14.70;99.90
11615;DHT22;5863;52.832;4.758;2023-05-07T00:29:51;14.80;99.90
11615;DHT22;5863;52.832;4.758;2023-05-07T00:32:18;14.70;99.90
11615;DHT22;5863;52.832;4.758;2023-05-07T00:34:45;14.70;99.90
11615;DHT22;5863;52.832;4.758;2023-05-07T00:37:13;14.70;99.90
11615;DHT22;5863;52.832;4.758;2023-05-07T00:39:39;14.70;99.90
11615;DHT22;5863;52.832;4.758;2023-05-07T00:42:06;14.80;99.90
11615;DHT22;5863;52.832;4.758;2023-05-07T00:44:33;14.80;99.90
11615;DHT22;5863;52.832;4.758;2023-05-07T00:47:02;14.80;99.90
11615;DHT22;5863;52.832;4.758;2023-05-07T00:49:35;14.80;99.90
11615;DHT22;5863;52.832;4.758;2023-05-07T00:52:04;14.80;99.90
11615;DHT22;5863;52.832;4.758;2023-05-07T00:54:34;14.80;99.90
11615;DHT22;5863;52.832;4.758;2023-05-07T00:57:02;14.80;99.90
11615;DHT22;5863;52.832;4.758;2023-05-07T00:59:29;14.70;99.90
11615;DHT22;5863;52.832;4.758;2023-05-07T01:01:56;14.70;99.90
11615;DHT22;5863;52.832;4.758;2023-05-07T01:04:22;14.80;99.90
11615;DHT22;5863;52.832;4.758;2023-05-07T01:06:50;14.70;99.90
11615;DHT22;5863;52.832;4.758;2023-05-07T01:09:17;14.70;99.90
11615;DHT22;5863;52.832;4.758;2023-05-07T01:11:47;14.70;99.90
11615;DHT22;5863;52.832;4.758;2023-05-07T01:14:14;14.70;99.90
11615;DHT22;5863;52.832;4.758;2023-05-07T01:16:42;14.70;99.90
11615;DHT22;5863;52.832;4.758;2023-05-07T01:19:08;14.70;99.90
11615;DHT22;5863;52.832;4.758;2023-05-07T01:21:43;14.70;99.90
11615;DHT22;5863;52.832;4.758;2023-05-07T01:24:12;14.70;99.90
11615;DHT22;5863;52.832;4.758;2023-05-07T01:26:39;14.70;99.90
11615;DHT22;5863;52.832;4.758;2023-05-07T01:29:06;14.70;99.90
11615;DHT22;5863;52.832;4.758;2023-05-07T01:31:33;14.70;99.90
11615;DHT22;5863;52.832;4.758;2023-05-07T01:34:01;14.70;99.90
11615;DHT22;5863;52.832;4.758;2023-05-07T01:36:30;14.70;99.90
11615;DHT22;5863;52.832;4.758;2023-05-07T01:38:58;14.70;99.90
11615;DHT22;5863;52.832;4.758;2023-05-07T01:41:26;14.70;99.90
11615;DHT22;5863;52.832;4.758;2023-05-07T01:43:54;14.70;99.90
11615;DHT22;5863;52.832;4.758;2023-05-07T01:46:21;14.70;99.90
11615;DHT22;5863;52.832;4.758;2023-05-07T01:48:48;14.70;99.90
11615;DHT22;5863;52.832;4.758;2023-05-07T01:51:16;14.70;99.90
11615;DHT22;5863;52.832;4.758;2023-05-07T01:53:42;14.70;99.90
11615;DHT22;5863;52.832;4.758;2023-05-07T01:56:11;14.70;99.90
11615;DHT22;5863;52.832;4.758;2023-05-07T01:58:39;14.70;99.90
11615;DHT22;5863;52.832;4.758;2023-05-07T02:01:05;14.70;99.90
11615;DHT22;5863;52.832;4.758;2023-05-07T02:03:32;14.70;99.90
11615;DHT22;5863;52.832;4.758;2023-05-07T02:05:59;14.70;99.90
11615;DHT22;5863;52.832;4.758;2023-05-07T02:08:26;14.70;99.90
11615;DHT22;5863;52.832;4.758;2023-05-07T02:10:53;14.70;99.90
11615;DHT22;5863;52.832;4.758;2023-05-07T02:13:19;14.70;99.90
11615;DHT22;5863;52.832;4.758;2023-05-07T02:15:48;14.70;99.90
11615;DHT22;5863;52.832;4.758;2023-05-07T02:18:16;14.70;99.90
11615;DHT22;5863;52.832;4.758;2023-05-07T02:20:43;14.70;99.90
11615;DHT22;5863;52.832;4.758;2023-05-07T02:23:10;14.70;99.90
11615;DHT22;5863;52.832;4.758;2023-05-07T02:25:36;14.70;99.90
11615;DHT22;5863;52.832;4.758;2023-05-07T02:28:03;14.70;99.90
11615;DHT22;5863;52.832;4.758;2023-05-07T02:30:31;14.80;99.90
11615;DHT22;5863;52.832;4.758;2023-05-07T02:32:59;14.80;99.90
11615;DHT22;5863;52.832;4.758;2023-05-07T02:35:26;14.80;99.90
11615;DHT22;5863;52.832;4.758;2023-05-07T02:37:53;14.70;99.90
11615;DHT22;5863;52.832;4.758;2023-05-07T02:40:20;14.70;99.90
11615;DHT22;5863;52.832;4.758;2023-05-07T02:42:47;14.80;99.90
11615;DHT22;5863;52.832;4.758;2023-05-07T02:45:13;14.80;99.90
11615;DHT22;5863;52.832;4.758;2023-05-07T02:47:40;14.70;99.90
11615;DHT22;5863;52.832;4.758;2023-05-07T02:50:09;14.70;99.90
11615;DHT22;5863;52.832;4.758;2023-05-07T02:52:36;14.70;99.90
11615;DHT22;5863;52.832;4.758;2023-05-07T02:55:03;14.80;99.90
11615;DHT22;5863;52.832;4.758;2023-05-07T02:57:30;14.80;99.90
11615;DHT22;5863;52.832;4.758;2023-05-07T02:59:58;14.80;99.90
11615;DHT22;5863;52.832;4.758;2023-05-07T03:02:24;14.80;99.90
11615;DHT22;5863;52.832;4.758;2023-05-07T03:04:51;14.80;99.90
11615;DHT22;5863;52.832;4.758;2023-05-07T03:07:19;14.80;99.90
11615;DHT22;5863;52.832;4.758;2023-05-07T03:09:49;14.80;99.90
11615;DHT22;5863;52.832;4.758;2023-05-07T03:12:16;14.80;99.90
11615;DHT22;5863;52.832;4.758;2023-05-07T03:14:44;14.80;99.90
11615;DHT22;5863;52.832;4.758;2023-05-07T03:17:11;14.90;99.90
11615;DHT22;5863;52.832;4.758;2023-05-07T03:19:38;14.80;99.90
11615;DHT22;5863;52.832;4.758;2023-05-07T03:22:05;14.80;99.90
11615;DHT22;5863;52.832;4.758;2023-05-07T03:24:33;14.80;99.90
11615;DHT22;5863;52.832;4.758;2023-05-07T03:27:00;14.80;99.90
11615;DHT22;5863;52.832;4.758;2023-05-07T03:29:27;14.80;99.90
11615;DHT22;5863;52.832;4.758;2023-05-07T03:31:55;14.90;99.90
11615;DHT22;5863;52.832;4.758;2023-05-07T03:34:21;14.80;99.90
11615;DHT22;5863;52.832;4.758;2023-05-07T03:36:48;14.80;99.90
11615;DHT22;5863;52.832;4.758;2023-05-07T03:39:15;14.80;99.90
11615;DHT22;5863;52.832;4.758;2023-05-07T03:41:46;14.80;99.90
11615;DHT22;5863;52.832;4.758;2023-05-07T03:44:12;14.80;99.90
11615;DHT22;5863;52.832;4.758;2023-05-07T03:46:39;14.80;99.90
11615;DHT22;5863;52.832;4.758;2023-05-07T03:49:06;14.70;99.90
11615;DHT22;5863;52.832;4.758;2023-05-07T03:51:32;14.70;99.90
11615;DHT22;5863;52.832;4.758;2023-05-07T03:53:59;14.70;99.90
11615;DHT22;5863;52.832;4.758;2023-05-07T03:56:26;14.70;99.90
11615;DHT22;5863;52.832;4.758;2023-05-07T03:58:54;14.70;99.90
11615;DHT22;5863;52.832;4.758;2023-05-07T04:01:21;14.70;99.90
11615;DHT22;5863;52.832;4.758;2023-05-07T04:03:48;14.70;99.90
11615;DHT22;5863;52.832;4.758;2023-05-07T04:06:17;14.70;99.90
11615;DHT22;5863;52.832;4.758;2023-05-07T04:08:44;14.70;99.90
11615;DHT22;5863;52.832;4.758;2023-05-07T04:11:12;14.70;99.90
11615;DHT22;5863;52.832;4.758;2023-05-07T04:13:38;14.70;99.90
11615;DHT22;5863;52.832;4.758;2023-05-07T04:16:07;14.70;99.90
11615;DHT22;5863;52.832;4.758;2023-05-07T04:18:34;14.70;99.90
11615;DHT22;5863;52.832;4.758;2023-05-07T04:21:00;14.70;99.90
11615;DHT22;5863;52.832;4.758;2023-05-07T04:23:27;14.70;99.90
11615;DHT22;5863;52.832;4.758;2023-05-07T04:25:54;14.70;99.90
11615;DHT22;5863;52.832;4.758;2023-05-07T04:28:21;14.70;99.90
11615;DHT22;5863;52.832;4.758;2023-05-07T04:30:48;14.70;99.90
11615;DHT22;5863;52.832;4.758;2023-05-07T04:33:16;14.70;99.90
11615;DHT22;5863;52.832;4.758;2023-05-07T04:35:43;14.70;99.90
11615;DHT22;5863;52.832;4.758;2023-05-07T04:38:13;14.70;99.90
11615;DHT22;5863;52.832;4.758;2023-05-07T04:40:40;14.70;99.90
11615;DHT22;5863;52.832;4.758;2023-05-07T04:43:07;14.70;99.90
11615;DHT22;5863;52.832;4.758;2023-05-07T04:45:34;14.70;99.90
11615;DHT22;5863;52.832;4.758;2023-05-07T04:48:01;14.70;99.90
11615;DHT22;5863;52.832;4.758;2023-05-07T04:50:29;14.70;99.90
11615;DHT22;5863;52.832;4.758;2023-05-07T04:52:56;14.80;99.90
11615;DHT22;5863;52.832;4.758;2023-05-07T04:55:24;14.80;99.90
11615;DHT22;5863;52.832;4.758;2023-05-07T04:57:52;14.80;99.90
11615;DHT22;5863;52.832;4.758;2023-05-07T05:00:19;14.90;99.90
11615;DHT22;5863;52.832;4.758;2023-05-07T05:02:46;14.90;99.90
11615;DHT22;5863;52.832;4.758;2023-05-07T05:05:12;14.90;99.90
11615;DHT22;5863;52.832;4.758;2023-05-07T05:07:40;14.90;99.90
11615;DHT22;5863;52.832;4.758;2023-05-07T05:10:07;14.90;99.90
11615;DHT22;5863;52.832;4.758;2023-05-07T05:12:34;14.90;99.90
11615;DHT22;5863;52.832;4.758;2023-05-07T05:15:00;14.90;99.90
11615;DHT22;5863;52.832;4.758;2023-05-07T05:17:27;15.00;99.90
11615;DHT22;5863;52.832;4.758;2023-05-07T05:19:54;15.10;99.90
11615;DHT22;5863;52.832;4.758;2023-05-07T05:22:21;15.10;99.90
11615;DHT22;5863;52.832;4.758;2023-05-07T05:24:49;15.20;99.90
11615;DHT22;5863;52.832;4.758;2023-05-07T05:27:16;15.20;99.90
11615;DHT22;5863;52.832;4.758;2023-05-07T05:29:42;15.30;99.90
11615;DHT22;5863;52.832;4.758;2023-05-07T05:32:09;15.30;99.90
11615;DHT22;5863;52.832;4.758;2023-05-07T05:34:36;15.30;99.90
11615;DHT22;5863;52.832;4.758;2023-05-07T05:37:02;15.30;99.90
11615;DHT22;5863;52.832;4.758;2023-05-07T05:39:29;15.40;99.90
11615;DHT22;5863;52.832;4.758;2023-05-07T05:41:57;15.40;99.90
11615;DHT22;5863;52.832;4.758;2023-05-07T05:44:24;15.50;99.90
11615;DHT22;5863;52.832;4.758;2023-05-07T05:46:50;15.60;99.90
11615;DHT22;5863;52.832;4.758;2023-05-07T05:49:20;15.70;99.90
11615;DHT22;5863;52.832;4.758;2023-05-07T05:51:46;15.80;99.90
11615;DHT22;5863;52.832;4.758;2023-05-07T05:54:13;15.90;99.90
11615;DHT22;5863;52.832;4.758;2023-05-07T05:56:41;16.00;99.90
11615;DHT22;5863;52.832;4.758;2023-05-07T05:59:09;16.00;99.90
11615;DHT22;5863;52.832;4.758;2023-05-07T06:01:36;16.00;99.90
11615;DHT22;5863;52.832;4.758;2023-05-07T06:04:06;16.10;99.90
11615;DHT22;5863;52.832;4.758;2023-05-07T06:06:32;16.20;99.90
11615;DHT22;5863;52.832;4.758;2023-05-07T06:08:59;16.20;99.90
11615;DHT22;5863;52.832;4.758;2023-05-07T06:11:26;16.30;99.90
11615;DHT22;5863;52.832;4.758;2023-05-07T06:13:52;16.30;99.90
11615;DHT22;5863;52.832;4.758;2023-05-07T06:16:20;16.30;99.90
11615;DHT22;5863;52.832;4.758;2023-05-07T06:18:47;16.30;99.90
11615;DHT22;5863;52.832;4.758;2023-05-07T06:21:20;16.30;99.90
11615;DHT22;5863;52.832;4.758;2023-05-07T06:23:46;16.40;99.90
11615;DHT22;5863;52.832;4.758;2023-05-07T06:26:13;16.30;99.90
11615;DHT22;5863;52.832;4.758;2023-05-07T06:28:39;16.30;99.90
11615;DHT22;5863;52.832;4.758;2023-05-07T06:31:17;16.30;99.90
11615;DHT22;5863;52.832;4.758;2023-05-07T06:33:47;16.40;99.90
11615;DHT22;5863;52.832;4.758;2023-05-07T06:36:14;16.40;99.90
11615;DHT22;5863;52.832;4.758;2023-05-07T06:38:44;16.30;99.90
11615;DHT22;5863;52.832;4.758;2023-05-07T06:41:10;16.30;99.90
11615;DHT22;5863;52.832;4.758;2023-05-07T06:43:37;16.30;99.90
11615;DHT22;5863;52.832;4.758;2023-05-07T06:46:04;16.30;99.90
11615;DHT22;5863;52.832;4.758;2023-05-07T06:48:31;16.30;99.90
11615;DHT22;5863;52.832;4.758;2023-05-07T06:50:59;16.30;99.90
11615;DHT22;5863;52.832;4.758;2023-05-07T06:53:25;16.30;99.90
11615;DHT22;5863;52.832;4.758;2023-05-07T06:55:56;16.40;99.90
11615;DHT22;5863;52.832;4.758;2023-05-07T06:58:23;16.40;99.90
11615;DHT22;5863;52.832;4.758;2023-05-07T07:00:50;16.40;99.90
11615;DHT22;5863;52.832;4.758;2023-05-07T07:03:16;16.40;99.90
11615;DHT22;5863;52.832;4.758;2023-05-07T07:05:43;16.40;99.90
11615;DHT22;5863;52.832;4.758;2023-05-07T07:08:11;16.40;99.90
11615;DHT22;5863;52.832;4.758;2023-05-07T07:10:38;16.40;99.90
11615;DHT22;5863;52.832;4.758;2023-05-07T07:13:05;16.40;99.90
11615;DHT22;5863;52.832;4.758;2023-05-07T07:15:31;16.40;99.90
11615;DHT22;5863;52.832;4.758;2023-05-07T07:17:58;16.40;99.90
11615;DHT22;5863;52.832;4.758;2023-05-07T07:20:25;16.30;99.90
11615;DHT22;5863;52.832;4.758;2023-05-07T07:22:52;16.40;99.90
11615;DHT22;5863;52.832;4.758;2023-05-07T07:25:20;16.40;99.90
11615;DHT22;5863;52.832;4.758;2023-05-07T07:27:46;16.40;99.90
11615;DHT22;5863;52.832;4.758;2023-05-07T07:30:13;16.30;99.90
11615;DHT22;5863;52.832;4.758;2023-05-07T07:32:40;16.40;99.90
11615;DHT22;5863;52.832;4.758;2023-05-07T07:35:07;16.40;99.90
11615;DHT22;5863;52.832;4.758;2023-05-07T07:37:34;16.40;99.90
11615;DHT22;5863;52.832;4.758;2023-05-07T07:40:00;16.50;99.90
11615;DHT22;5863;52.832;4.758;2023-05-07T07:42:30;16.50;99.90
11615;DHT22;5863;52.832;4.758;2023-05-07T07:44:56;16.70;99.90
11615;DHT22;5863;52.832;4.758;2023-05-07T07:47:23;16.70;99.90
11615;DHT22;5863;52.832;4.758;2023-05-07T07:49:50;16.80;99.90
11615;DHT22;5863;52.832;4.758;2023-05-07T07:52:16;16.80;99.90
11615;DHT22;5863;52.832;4.758;2023-05-07T07:54:43;16.80;99.90
11615;DHT22;5863;52.832;4.758;2023-05-07T07:57:10;16.80;99.90
11615;DHT22;5863;52.832;4.758;2023-05-07T07:59:38;16.90;99.90
11615;DHT22;5863;52.832;4.758;2023-05-07T08:02:05;16.90;99.90
11615;DHT22;5863;52.832;4.758;2023-05-07T08:04:32;16.90;99.90
11615;DHT22;5863;52.832;4.758;2023-05-07T08:06:59;17.00;99.90
11615;DHT22;5863;52.832;4.758;2023-05-07T08:09:25;17.00;99.90
11615;DHT22;5863;52.832;4.758;2023-05-07T08:11:52;17.10;99.90
11615;DHT22;5863;52.832;4.758;2023-05-07T08:14:19;17.20;99.90
11615;DHT22;5863;52.832;4.758;2023-05-07T08:16:47;17.40;99.90
11615;DHT22;5863;52.832;4.758;2023-05-07T08:19:13;17.70;99.90
11615;DHT22;5863;52.832;4.758;2023-05-07T08:21:40;18.10;99.90
11615;DHT22;5863;52.832;4.758;2023-05-07T08:24:07;18.40;99.90
11615;DHT22;5863;52.832;4.758;2023-05-07T08:26:33;18.40;99.90
11615;DHT22;5863;52.832;4.758;2023-05-07T08:29:01;18.40;99.90
11615;DHT22;5863;52.832;4.758;2023-05-07T08:31:28;18.50;99.90
11615;DHT22;5863;52.832;4.758;2023-05-07T08:33:56;18.80;99.90
11615;DHT22;5863;52.832;4.758;2023-05-07T08:36:22;18.90;99.90
11615;DHT22;5863;52.832;4.758;2023-05-07T08:38:49;19.20;99.90
11615;DHT22;5863;52.832;4.758;2023-05-07T08:41:16;19.30;99.90
11615;DHT22;5863;52.832;4.758;2023-05-07T08:43:46;19.40;99.90
11615;DHT22;5863;52.832;4.758;2023-05-07T08:46:16;19.60;99.90
11615;DHT22;5863;52.832;4.758;2023-05-07T08:48:44;19.70;99.90
11615;DHT22;5863;52.832;4.758;2023-05-07T08:51:15;19.80;99.90
11615;DHT22;5863;52.832;4.758;2023-05-07T08:53:42;19.80;99.90
11615;DHT22;5863;52.832;4.758;2023-05-07T08:56:09;19.90;99.90
11615;DHT22;5863;52.832;4.758;2023-05-07T08:58:36;19.90;99.90
11615;DHT22;5863;52.832;4.758;2023-05-07T09:01:07;19.90;99.90
11615;DHT22;5863;52.832;4.758;2023-05-07T09:03:34;19.90;99.90
11615;DHT22;5863;52.832;4.758;2023-05-07T09:06:01;19.80;99.90
11615;DHT22;5863;52.832;4.758;2023-05-07T09:08:29;19.80;99.90
11615;DHT22;5863;52.832;4.758;2023-05-07T09:10:56;19.70;99.90
11615;DHT22;5863;52.832;4.758;2023-05-07T09:13:23;19.60;99.90
11615;DHT22;5863;52.832;4.758;2023-05-07T09:15:50;19.60;99.90
11615;DHT22;5863;52.832;4.758;2023-05-07T09:18:17;19.50;99.90
11615;DHT22;5863;52.832;4.758;2023-05-07T09:20:43;19.50;99.90
11615;DHT22;5863;52.832;4.758;2023-05-07T09:23:10;19.40;99.90
11615;DHT22;5863;52.832;4.758;2023-05-07T09:25:38;19.40;99.90
11615;DHT22;5863;52.832;4.758;2023-05-07T09:28:05;19.50;99.90
11615;DHT22;5863;52.832;4.758;2023-05-07T09:30:33;19.60;99.90
11615;DHT22;5863;52.832;4.758;2023-05-07T09:33:03;19.70;99.90
11615;DHT22;5863;52.832;4.758;2023-05-07T09:35:30;19.90;99.90
11615;DHT22;5863;52.832;4.758;2023-05-07T09:37:58;19.90;99.90
11615;DHT22;5863;52.832;4.758;2023-05-07T09:40:26;20.10;99.90
11615;DHT22;5863;52.832;4.758;2023-05-07T09:42:55;20.20;99.90
11615;DHT22;5863;52.832;4.758;2023-05-07T09:45:22;20.20;99.90
11615;DHT22;5863;52.832;4.758;2023-05-07T09:47:54;20.20;99.90
11615;DHT22;5863;52.832;4.758;2023-05-07T09:50:26;20.30;99.90
11615;DHT22;5863;52.832;4.758;2023-05-07T09:52:54;20.40;99.90
11615;DHT22;5863;52.832;4.758;2023-05-07T09:55:22;20.30;99.90
11615;DHT22;5863;52.832;4.758;2023-05-07T09:57:50;20.40;99.90
11615;DHT22;5863;52.832;4.758;2023-05-07T10:00:19;20.50;99.90
11615;DHT22;5863;52.832;4.758;2023-05-07T10:02:47;20.60;99.90
11615;DHT22;5863;52.832;4.758;2023-05-07T10:05:15;20.70;99.90
11615;DHT22;5863;52.832;4.758;2023-05-07T10:07:42;20.70;99.90
11615;DHT22;5863;52.832;4.758;2023-05-07T10:10:10;20.80;99.90
11615;DHT22;5863;52.832;4.758;2023-05-07T10:12:37;20.80;99.90
11615;DHT22;5863;52.832;4.758;2023-05-07T10:15:07;20.80;99.90
11615;DHT22;5863;52.832;4.758;2023-05-07T10:17:36;20.70;99.90
11615;DHT22;5863;52.832;4.758;2023-05-07T10:20:04;20.70;99.90
11615;DHT22;5863;52.832;4.758;2023-05-07T10:22:33;20.80;99.90
11615;DHT22;5863;52.832;4.758;2023-05-07T10:25:06;20.90;99.90
11615;DHT22;5863;52.832;4.758;2023-05-07T10:27:36;21.00;99.90
11615;DHT22;5863;52.832;4.758;2023-05-07T10:30:12;21.10;99.90
11615;DHT22;5863;52.832;4.758;2023-05-07T10:32:46;21.30;99.90
11615;DHT22;5863;52.832;4.758;2023-05-07T10:35:17;21.50;99.90
11615;DHT22;5863;52.832;4.758;2023-05-07T10:37:45;21.60;99.90
11615;DHT22;5863;52.832;4.758;2023-05-07T10:40:12;21.70;99.90
11615;DHT22;5863;52.832;4.758;2023-05-07T10:42:53;21.80;99.90
11615;DHT22;5863;52.832;4.758;2023-05-07T10:45:21;22.00;99.90
11615;DHT22;5863;52.832;4.758;2023-05-07T10:48:16;22.00;99.90
11615;DHT22;5863;52.832;4.758;2023-05-07T10:50:44;21.90;99.90
11615;DHT22;5863;52.832;4.758;2023-05-07T10:53:24;21.90;99.90
11615;DHT22;5863;52.832;4.758;2023-05-07T10:56:26;21.90;99.90
11615;DHT22;5863;52.832;4.758;2023-05-07T10:59:30;21.80;99.90
11615;DHT22;5863;52.832;4.758;2023-05-07T11:01:58;21.60;99.90
11615;DHT22;5863;52.832;4.758;2023-05-07T11:04:26;21.50;99.90
11615;DHT22;5863;52.832;4.758;2023-05-07T11:07:24;21.50;99.90
11615;DHT22;5863;52.832;4.758;2023-05-07T11:10:04;21.50;99.90
11615;DHT22;5863;52.832;4.758;2023-05-07T11:12:50;21.70;99.90
11615;DHT22;5863;52.832;4.758;2023-05-07T11:15:37;21.70;99.90
11615;DHT22;5863;52.832;4.758;2023-05-07T11:18:04;21.80;99.90
11615;DHT22;5863;52.832;4.758;2023-05-07T11:20:50;21.80;99.90
11615;DHT22;5863;52.832;4.758;2023-05-07T11:26:43;21.70;99.90
11615;DHT22;5863;52.832;4.758;2023-05-07T11:29:12;21.70;99.90
11615;DHT22;5863;52.832;4.758;2023-05-07T11:31:39;21.70;99.90
11615;DHT22;5863;52.832;4.758;2023-05-07T11:34:06;21.60;99.90
11615;DHT22;5863;52.832;4.758;2023-05-07T11:36:36;21.50;99.90
11615;DHT22;5863;52.832;4.758;2023-05-07T11:39:23;21.50;99.90
11615;DHT22;5863;52.832;4.758;2023-05-07T11:41:50;21.40;99.90
11615;DHT22;5863;52.832;4.758;2023-05-07T11:44:16;21.40;99.90
11615;DHT22;5863;52.832;4.758;2023-05-07T11:46:44;21.30;99.90
11615;DHT22;5863;52.832;4.758;2023-05-07T11:49:11;21.30;99.90
11615;DHT22;5863;52.832;4.758;2023-05-07T11:51:39;21.20;99.90
11615;DHT22;5863;52.832;4.758;2023-05-07T11:54:08;21.00;99.90
11615;DHT22;5863;52.832;4.758;2023-05-07T11:56:37;20.90;99.90
11615;DHT22;5863;52.832;4.758;2023-05-07T11:59:04;20.80;99.90
11615;DHT22;5863;52.832;4.758;2023-05-07T12:01:31;20.80;99.90
11615;DHT22;5863;52.832;4.758;2023-05-07T12:03:58;20.80;99.90
11615;DHT22;5863;52.832;4.758;2023-05-07T12:06:25;20.90;99.90
11615;DHT22;5863;52.832;4.758;2023-05-07T12:08:54;20.90;99.90
11615;DHT22;5863;52.832;4.758;2023-05-07T12:11:23;20.90;99.90
11615;DHT22;5863;52.832;4.758;2023-05-07T12:13:50;21.00;99.90
11615;DHT22;5863;52.832;4.758;2023-05-07T12:16:17;21.10;99.90
11615;DHT22;5863;52.832;4.758;2023-05-07T12:19:00;21.10;99.90
11615;DHT22;5863;52.832;4.758;2023-05-07T12:21:26;21.20;99.90
11615;DHT22;5863;52.832;4.758;2023-05-07T12:23:55;21.20;99.90
11615;DHT22;5863;52.832;4.758;2023-05-07T12:26:22;21.30;99.90
11615;DHT22;5863;52.832;4.758;2023-05-07T12:28:50;21.40;99.90
11615;DHT22;5863;52.832;4.758;2023-05-07T12:31:17;21.40;99.90
11615;DHT22;5863;52.832;4.758;2023-05-07T12:33:45;21.60;99.90
11615;DHT22;5863;52.832;4.758;2023-05-07T12:36:13;21.60;99.90
11615;DHT22;5863;52.832;4.758;2023-05-07T12:38:40;21.60;99.90
11615;DHT22;5863;52.832;4.758;2023-05-07T12:41:10;21.50;99.90
11615;DHT22;5863;52.832;4.758;2023-05-07T12:43:37;21.40;99.90
11615;DHT22;5863;52.832;4.758;2023-05-07T12:46:05;21.40;99.90
11615;DHT22;5863;52.832;4.758;2023-05-07T12:48:32;21.30;99.90
11615;DHT22;5863;52.832;4.758;2023-05-07T12:51:00;21.30;99.90
11615;DHT22;5863;52.832;4.758;2023-05-07T12:53:28;21.20;99.90
11615;DHT22;5863;52.832;4.758;2023-05-07T12:55:57;21.10;99.90
11615;DHT22;5863;52.832;4.758;2023-05-07T12:58:26;21.10;99.90
11615;DHT22;5863;52.832;4.758;2023-05-07T13:00:54;21.10;99.90
11615;DHT22;5863;52.832;4.758;2023-05-07T13:03:25;21.10;99.90
11615;DHT22;5863;52.832;4.758;2023-05-07T13:05:52;21.10;99.90
11615;DHT22;5863;52.832;4.758;2023-05-07T13:08:30;21.00;99.90
11615;DHT22;5863;52.832;4.758;2023-05-07T13:10:58;21.00;99.90
11615;DHT22;5863;52.832;4.758;2023-05-07T13:13:30;21.00;99.90
11615;DHT22;5863;52.832;4.758;2023-05-07T13:16:04;21.00;99.90
11615;DHT22;5863;52.832;4.758;2023-05-07T13:18:31;21.10;99.90
11615;DHT22;5863;52.832;4.758;2023-05-07T13:20:59;21.10;99.90
11615;DHT22;5863;52.832;4.758;2023-05-07T13:23:27;21.10;99.90
11615;DHT22;5863;52.832;4.758;2023-05-07T13:25:54;21.20;99.90
11615;DHT22;5863;52.832;4.758;2023-05-07T13:28:21;21.10;99.90
11615;DHT22;5863;52.832;4.758;2023-05-07T13:30:49;21.00;99.90
11615;DHT22;5863;52.832;4.758;2023-05-07T13:33:18;21.00;99.90
11615;DHT22;5863;52.832;4.758;2023-05-07T13:35:45;20.90;99.90
11615;DHT22;5863;52.832;4.758;2023-05-07T13:38:11;20.80;99.90
11615;DHT22;5863;52.832;4.758;2023-05-07T13:40:38;20.80;99.90
11615;DHT22;5863;52.832;4.758;2023-05-07T13:43:05;20.80;99.90
11615;DHT22;5863;52.832;4.758;2023-05-07T13:45:33;20.80;99.90
11615;DHT22;5863;52.832;4.758;2023-05-07T13:48:01;20.60;99.90
11615;DHT22;5863;52.832;4.758;2023-05-07T13:50:28;20.50;99.90
11615;DHT22;5863;52.832;4.758;2023-05-07T13:52:55;20.50;99.90
11615;DHT22;5863;52.832;4.758;2023-05-07T13:55:23;20.30;99.90
11615;DHT22;5863;52.832;4.758;2023-05-07T13:57:54;20.30;99.90
11615;DHT22;5863;52.832;4.758;2023-05-07T14:00:21;20.20;99.90
11615;DHT22;5863;52.832;4.758;2023-05-07T14:02:48;20.00;99.90
11615;DHT22;5863;52.832;4.758;2023-05-07T14:05:16;19.90;99.90
11615;DHT22;5863;52.832;4.758;2023-05-07T14:07:43;19.70;99.90
11615;DHT22;5863;52.832;4.758;2023-05-07T14:10:10;19.60;99.90
11615;DHT22;5863;52.832;4.758;2023-05-07T14:12:38;19.50;99.90
11615;DHT22;5863;52.832;4.758;2023-05-07T14:15:06;19.40;99.90
11615;DHT22;5863;52.832;4.758;2023-05-07T14:17:33;19.30;99.90
11615;DHT22;5863;52.832;4.758;2023-05-07T14:20:00;19.20;99.90
11615;DHT22;5863;52.832;4.758;2023-05-07T14:22:28;19.00;99.90
11615;DHT22;5863;52.832;4.758;2023-05-07T14:24:56;19.00;99.90
11615;DHT22;5863;52.832;4.758;2023-05-07T14:27:22;19.00;99.90
11615;DHT22;5863;52.832;4.758;2023-05-07T14:29:49;19.10;99.90
11615;DHT22;5863;52.832;4.758;2023-05-07T14:32:16;19.20;99.90
11615;DHT22;5863;52.832;4.758;2023-05-07T14:34:43;19.20;99.90
11615;DHT22;5863;52.832;4.758;2023-05-07T14:37:10;19.30;99.90
11615;DHT22;5863;52.832;4.758;2023-05-07T14:39:38;19.50;99.90
11615;DHT22;5863;52.832;4.758;2023-05-07T14:42:07;19.60;99.90
11615;DHT22;5863;52.832;4.758;2023-05-07T14:44:34;19.70;99.90
11615;DHT22;5863;52.832;4.758;2023-05-07T14:47:01;19.80;99.90
11615;DHT22;5863;52.832;4.758;2023-05-07T14:49:27;19.90;99.90
11615;DHT22;5863;52.832;4.758;2023-05-07T14:51:56;20.00;99.90
11615;DHT22;5863;52.832;4.758;2023-05-07T14:54:23;20.00;99.90
11615;DHT22;5863;52.832;4.758;2023-05-07T14:56:51;20.00;99.90
11615;DHT22;5863;52.832;4.758;2023-05-07T14:59:18;20.00;99.90
11615;DHT22;5863;52.832;4.758;2023-05-07T15:01:46;20.00;99.90
11615;DHT22;5863;52.832;4.758;2023-05-07T15:04:13;19.90;99.90
11615;DHT22;5863;52.832;4.758;2023-05-07T15:06:39;19.90;99.90
11615;DHT22;5863;52.832;4.758;2023-05-07T15:09:06;19.90;99.90
11615;DHT22;5863;52.832;4.758;2023-05-07T15:11:34;20.00;99.90
11615;DHT22;5863;52.832;4.758;2023-05-07T15:14:02;20.00;99.90
11615;DHT22;5863;52.832;4.758;2023-05-07T15:16:28;20.00;99.90
11615;DHT22;5863;52.832;4.758;2023-05-07T15:18:55;20.00;99.90
11615;DHT22;5863;52.832;4.758;2023-05-07T15:21:22;20.00;99.90
11615;DHT22;5863;52.832;4.758;2023-05-07T15:23:48;20.00;99.90
11615;DHT22;5863;52.832;4.758;2023-05-07T15:26:15;20.00;99.90
11615;DHT22;5863;52.832;4.758;2023-05-07T15:28:42;20.00;99.90
11615;DHT22;5863;52.832;4.758;2023-05-07T15:31:10;20.00;99.90
11615;DHT22;5863;52.832;4.758;2023-05-07T15:33:37;19.90;99.90
11615;DHT22;5863;52.832;4.758;2023-05-07T15:36:05;19.90;99.90
11615;DHT22;5863;52.832;4.758;2023-05-07T15:38:31;19.90;99.90
11615;DHT22;5863;52.832;4.758;2023-05-07T15:40:58;19.90;99.90
11615;DHT22;5863;52.832;4.758;2023-05-07T15:43:25;19.80;99.90
11615;DHT22;5863;52.832;4.758;2023-05-07T15:45:51;19.80;99.90
11615;DHT22;5863;52.832;4.758;2023-05-07T15:48:20;19.80;99.90
11615;DHT22;5863;52.832;4.758;2023-05-07T15:50:46;19.80;99.90
11615;DHT22;5863;52.832;4.758;2023-05-07T15:53:13;19.70;99.90